Time;durP1;ratioP1;P1;durP2;ratioP2;P2;SDS_P1;SDS_P2;PMS_P1;PMS_P2;Temp;Humidity;BMP_temperature;BMP_pressure;BME280_temperature;BME280_humidity;BME280_pressure;Samples;Min_cycle;Max_cycle;Signal;HPM_P1;HPM_P2
2022/04/18 00:02:19;;;;;;;5.83;2.50;;;;;;;;;;5058122;28;20403;-84
2022/04/18 00:04:46;;;;;;;2.63;2.53;;;;;;;;;;5057669;28;20427;-75
2022/04/18 00:07:12;;;;;;;2.17;2.07;;;;;;;;;;5055351;28;20429;-81
2022/04/18 00:09:38;;;;;;;1.93;1.93;;;;;;;;;;5055481;28;20415;-84
2022/04/18 00:12:04;;;;;;;2.80;2.60;;;;;;;;;;5055315;28;20403;-84
2022/04/18 00:14:30;;;;;;;2.37;2.27;;;;;;;;;;5055097;28;20474;-82
2022/04/18 00:16:57;;;;;;;5.30;2.30;;;;;;;;;;5055238;28;20403;-83
2022/04/18 00:19:23;;;;;;;2.57;2.43;;;;;;;;;;5054743;28;20933;-77
2022/04/18 00:21:50;;;;;;;3.30;2.60;;;;;;;;;;5055243;28;20502;-81
2022/04/18 00:24:17;;;;;;;2.27;2.17;;;;;;;;;;5055087;28;20412;-80
2022/04/18 00:26:44;;;;;;;2.60;2.50;;;;;;;;;;5054901;28;20395;-75
2022/04/18 00:29:10;;;;;;;2.20;2.20;;;;;;;;;;5054675;28;20395;-80
2022/04/18 00:31:36;;;;;;;3.07;2.87;;;;;;;;;;5054683;28;20882;-83
2022/04/18 00:34:03;;;;;;;3.87;2.37;;;;;;;;;;5055240;28;20458;-73
2022/04/18 00:36:29;;;;;;;2.17;2.07;;;;;;;;;;5053266;28;20431;-73
2022/04/18 00:38:54;;;;;;;2.50;2.50;;;;;;;;;;5054379;28;20772;-73
2022/04/18 00:41:20;;;;;;;5.40;2.70;;;;;;;;;;5054204;28;20462;-73
2022/04/18 00:43:47;;;;;;;2.10;2.10;;;;;;;;;;5054258;28;20411;-73
2022/04/18 00:46:14;;;;;;;2.50;2.40;;;;;;;;;;5054170;28;20410;-73
2022/04/18 00:48:40;;;;;;;2.17;2.07;;;;;;;;;;5053995;28;20451;-74
2022/04/18 00:51:14;;;;;;;2.13;2.13;;;;;;;;;;5054033;28;20415;-73
2022/04/18 00:53:41;;;;;;;3.33;2.60;;;;;;;;;;5053948;28;20407;-74
2022/04/18 00:56:08;;;;;;;2.40;2.30;;;;;;;;;;5052702;28;20431;-73
2022/04/18 00:58:35;;;;;;;2.60;2.50;;;;;;;;;;5052718;28;20791;-75
2022/04/18 01:01:01;;;;;;;2.47;2.43;;;;;;;;;;5053897;28;20456;-73
2022/04/18 01:03:30;;;;;;;2.10;2.00;;;;;;;;;;5053697;28;20494;-73
2022/04/18 01:05:57;;;;;;;2.60;2.00;;;;;;;;;;5053740;28;20419;-73
2022/04/18 01:08:25;;;;;;;2.20;2.20;;;;;;;;;;5053620;28;20382;-73
2022/04/18 01:10:51;;;;;;;2.67;2.30;;;;;;;;;;5053690;28;20778;-73
2022/04/18 01:13:17;;;;;;;1.93;1.93;;;;;;;;;;5053596;28;20436;-73
2022/04/18 01:15:43;;;;;;;2.20;2.10;;;;;;;;;;5053547;28;20474;-73
2022/04/18 01:18:09;;;;;;;2.10;2.00;;;;;;;;;;5053622;28;20407;-75
2022/04/18 01:20:35;;;;;;;2.13;2.13;;;;;;;;;;5053501;28;20423;-73
2022/04/18 01:23:01;;;;;;;2.07;2.03;;;;;;;;;;5053530;28;20400;-73
2022/04/18 01:30:57;;;;;;;2.20;2.10;;;;;;;;;;5053630;28;20833;-73
2022/04/18 01:33:23;;;;;;;1.90;1.90;;;;;;;;;;5053374;28;20416;-73
2022/04/18 01:35:49;;;;;;;1.77;1.77;;;;;;;;;;5053515;28;20466;-73
2022/04/18 01:38:15;;;;;;;2.73;1.73;;;;;;;;;;5053567;28;20749;-72
2022/04/18 01:40:41;;;;;;;2.10;2.00;;;;;;;;;;5053069;28;20470;-76
2022/04/18 01:43:07;;;;;;;5.70;1.60;;;;;;;;;;5053277;28;20456;-72
2022/04/18 01:45:34;;;;;;;1.80;1.80;;;;;;;;;;5053183;28;20414;-73
2022/04/18 01:48:01;;;;;;;5.50;1.50;;;;;;;;;;5053287;28;20395;-73
2022/04/18 01:50:27;;;;;;;1.97;1.80;;;;;;;;;;5051903;28;20423;-73
2022/04/18 01:52:53;;;;;;;1.50;1.50;;;;;;;;;;5053231;28;20415;-73
2022/04/18 01:55:19;;;;;;;1.80;1.80;;;;;;;;;;5053099;28;20470;-73
2022/04/18 01:57:45;;;;;;;1.40;1.40;;;;;;;;;;5053178;28;20407;-73
2022/04/18 02:00:11;;;;;;;1.77;1.77;;;;;;;;;;5053106;28;20417;-73
2022/04/18 02:02:37;;;;;;;1.70;1.50;;;;;;;;;;5053128;28;20490;-73
2022/04/18 02:05:06;;;;;;;1.27;1.27;;;;;;;;;;5053103;28;20830;-74
2022/04/18 02:07:32;;;;;;;1.80;1.63;;;;;;;;;;5053110;28;20400;-73
2022/04/18 02:09:58;;;;;;;1.47;1.47;;;;;;;;;;5053113;28;20492;-73
2022/04/18 02:12:24;;;;;;;1.80;1.80;;;;;;;;;;5053024;28;20399;-78
2022/04/18 02:14:50;;;;;;;1.73;1.63;;;;;;;;;;5052949;28;20470;-74
2022/04/18 02:17:16;;;;;;;2.23;1.80;;;;;;;;;;5051673;28;20422;-73
2022/04/18 02:19:44;;;;;;;2.10;2.10;;;;;;;;;;5052933;28;20434;-73
2022/04/18 02:22:10;;;;;;;1.93;1.87;;;;;;;;;;5051691;28;20548;-78
2022/04/18 02:24:36;;;;;;;1.67;1.67;;;;;;;;;;5052928;28;20415;-73
2022/04/18 02:27:02;;;;;;;2.50;1.63;;;;;;;;;;5052936;28;20861;-75
2022/04/18 02:29:28;;;;;;;1.20;1.20;;;;;;;;;;5052829;28;21028;-73
2022/04/18 02:34:39;;;;;;;1.60;1.60;;;;;;;;;;5052864;28;21037;-74
2022/04/18 02:37:05;;;;;;;1.77;1.67;;;;;;;;;;5056176;28;20411;-75
2022/04/18 02:39:31;;;;;;;1.70;1.70;;;;;;;;;;5052762;28;20454;-74
2022/04/18 02:41:57;;;;;;;1.53;1.43;;;;;;;;;;5053780;28;20445;-73
2022/04/18 02:44:23;;;;;;;2.20;2.10;;;;;;;;;;5056475;28;20407;-76
2022/04/18 02:46:49;;;;;;;1.30;1.30;;;;;;;;;;5056497;28;20399;-80
2022/04/18 02:49:16;;;;;;;1.43;1.43;;;;;;;;;;5056353;28;20790;-83
2022/04/18 02:51:41;;;;;;;1.70;1.60;;;;;;;;;;5056203;28;20480;-85
2022/04/18 02:54:07;;;;;;;3.23;1.37;;;;;;;;;;5056481;28;20517;-85
2022/04/18 02:56:33;;;;;;;1.93;1.83;;;;;;;;;;5056125;28;20411;-85
2022/04/18 02:58:59;;;;;;;1.77;1.50;;;;;;;;;;5056135;28;20407;-74
2022/04/18 03:01:25;;;;;;;1.73;1.70;;;;;;;;;;5056159;28;20485;-74
2022/04/18 03:03:51;;;;;;;1.80;1.80;;;;;;;;;;5056376;28;20886;-74
2022/04/18 03:06:17;;;;;;;1.70;1.60;;;;;;;;;;5056425;28;20506;-76
2022/04/18 03:08:43;;;;;;;1.57;1.57;;;;;;;;;;5056628;28;20446;-73
2022/04/18 03:11:10;;;;;;;1.23;1.23;;;;;;;;;;5056324;28;20406;-75
2022/04/18 03:13:37;;;;;;;1.70;1.60;;;;;;;;;;5056419;28;20780;-74
2022/04/18 03:16:04;;;;;;;1.33;1.33;;;;;;;;;;5056277;28;20827;-78
2022/04/18 03:18:30;;;;;;;1.50;1.50;;;;;;;;;;5055930;28;20410;-75
2022/04/18 03:20:57;;;;;;;1.47;1.37;;;;;;;;;;5055817;28;20507;-74
2022/04/18 03:23:23;;;;;;;1.70;1.60;;;;;;;;;;5054460;28;20422;-76
2022/04/18 03:25:53;;;;;;;1.40;1.40;;;;;;;;;;5055737;28;20415;-75
2022/04/18 03:28:19;;;;;;;1.47;1.40;;;;;;;;;;5055640;28;20419;-76
2022/04/18 03:30:45;;;;;;;2.20;2.10;;;;;;;;;;5054439;28;20517;-75
2022/04/18 03:33:11;;;;;;;1.77;1.47;;;;;;;;;;5055488;28;20387;-85
2022/04/18 03:35:37;;;;;;;1.80;1.70;;;;;;;;;;5055448;28;20453;-85
2022/04/18 03:40:52;;;;;;;1.80;1.80;;;;;;;;;;5055361;28;20477;-88
2022/04/18 03:43:18;;;;;;;2.23;2.00;;;;;;;;;;5055293;28;20391;-84
2022/04/18 03:45:45;;;;;;;5.80;2.97;;;;;;;;;;5053975;28;20751;-85
2022/04/18 03:48:11;;;;;;;2.47;2.00;;;;;;;;;;5055349;28;20377;-84
2022/04/18 03:50:37;;;;;;;2.30;2.27;;;;;;;;;;5055169;28;20745;-85
2022/04/18 03:53:03;;;;;;;2.10;2.00;;;;;;;;;;5054517;28;20385;-85
2022/04/18 03:55:31;;;;;;;2.00;2.00;;;;;;;;;;5054548;28;20474;-83
2022/04/18 03:57:57;;;;;;;2.20;2.20;;;;;;;;;;5055207;28;20845;-73
2022/04/18 04:00:23;;;;;;;2.23;2.03;;;;;;;;;;5055109;28;20489;-74
2022/04/18 04:02:49;;;;;;;1.80;1.80;;;;;;;;;;5055163;28;20885;-74
2022/04/18 04:05:21;;;;;;;3.57;2.13;;;;;;;;;;5053598;28;20438;-74
2022/04/18 04:07:47;;;;;;;2.43;2.33;;;;;;;;;;5054970;28;20524;-73
2022/04/18 04:10:13;;;;;;;3.50;2.20;;;;;;;;;;5053609;28;20430;-75
2022/04/18 04:12:39;;;;;;;1.97;1.97;;;;;;;;;;5054908;28;20983;-73
2022/04/18 04:15:05;;;;;;;2.63;2.53;;;;;;;;;;5054757;28;20489;-74
2022/04/18 04:17:31;;;;;;;2.73;2.63;;;;;;;;;;5056689;28;20868;-73
2022/04/18 04:19:57;;;;;;;2.40;2.30;;;;;;;;;;5054651;28;20393;-74
2022/04/18 04:22:23;;;;;;;2.27;2.27;;;;;;;;;;5054750;28;20366;-73
2022/04/18 04:24:49;;;;;;;2.13;2.03;;;;;;;;;;5053512;28;20430;-80
2022/04/18 04:27:15;;;;;;;3.13;2.60;;;;;;;;;;5054755;28;20403;-81
2022/04/18 04:29:41;;;;;;;1.90;1.90;;;;;;;;;;5054392;28;20419;-83
2022/04/18 04:32:07;;;;;;;2.87;2.70;;;;;;;;;;5054496;28;20494;-85
2022/04/18 04:34:33;;;;;;;2.60;2.50;;;;;;;;;;5054155;28;20945;-83
2022/04/18 04:37:00;;;;;;;3.23;3.03;;;;;;;;;;5054704;28;20410;-83
2022/04/18 04:39:26;;;;;;;3.33;2.00;;;;;;;;;;5054491;28;20459;-84
2022/04/18 04:41:52;;;;;;;2.30;2.30;;;;;;;;;;5053130;28;20830;-86
2022/04/18 04:44:18;;;;;;;3.73;2.70;;;;;;;;;;5054223;28;20412;-85
2022/04/18 04:46:45;;;;;;;2.63;2.53;;;;;;;;;;5054166;28;20415;-74
2022/04/18 04:49:12;;;;;;;2.63;2.53;;;;;;;;;;5054352;28;20381;-77
2022/04/18 04:51:39;;;;;;;2.80;2.70;;;;;;;;;;5054494;28;20402;-74
2022/04/18 04:54:05;;;;;;;4.10;3.80;;;;;;;;;;5052596;28;20810;-74
2022/04/18 04:56:31;;;;;;;4.20;4.00;;;;;;;;;;5053945;28;20403;-74
2022/04/18 04:58:57;;;;;;;3.53;3.23;;;;;;;;;;5052567;28;20798;-73
2022/04/18 05:01:23;;;;;;;2.23;2.13;;;;;;;;;;5056042;28;20407;-74
2022/04/18 05:03:49;;;;;;;2.60;2.40;;;;;;;;;;5054027;28;20415;-76
2022/04/18 05:06:15;;;;;;;2.40;2.40;;;;;;;;;;5053512;28;20401;-82
2022/04/18 05:08:42;;;;;;;2.00;2.00;;;;;;;;;;5053950;28;20415;-85
2022/04/18 05:11:08;;;;;;;2.80;2.70;;;;;;;;;;5053705;28;20431;-83
2022/04/18 05:13:34;;;;;;;2.30;2.30;;;;;;;;;;5053726;28;20417;-86
2022/04/18 05:16:00;;;;;;;2.27;2.27;;;;;;;;;;5053809;28;20557;-83
2022/04/18 05:18:27;;;;;;;2.07;2.07;;;;;;;;;;5053807;28;20741;-83
2022/04/18 05:20:53;;;;;;;2.30;2.20;;;;;;;;;;5053722;28;20472;-84
2022/04/18 05:23:22;;;;;;;1.93;1.93;;;;;;;;;;5053580;28;20399;-82
2022/04/18 05:25:48;;;;;;;2.80;2.40;;;;;;;;;;5053580;28;20395;-83
2022/04/18 05:28:16;;;;;;;2.40;2.20;;;;;;;;;;5053516;28;20514;-83
2022/04/18 05:30:43;;;;;;;2.40;2.40;;;;;;;;;;5053429;28;20476;-80
2022/04/18 05:33:09;;;;;;;2.60;2.47;;;;;;;;;;5053415;28;20395;-82
2022/04/18 05:35:35;;;;;;;2.47;2.40;;;;;;;;;;5051937;28;20964;-81
2022/04/18 05:38:01;;;;;;;2.20;2.20;;;;;;;;;;5053563;28;20402;-85
2022/04/18 05:40:27;;;;;;;2.57;2.50;;;;;;;;;;5053320;28;20463;-80
2022/04/18 05:42:54;;;;;;;2.57;2.57;;;;;;;;;;5053413;28;20422;-79
2022/04/18 05:45:19;;;;;;;2.50;2.40;;;;;;;;;;5051976;28;20435;-83
2022/04/18 05:47:48;;;;;;;2.90;2.80;;;;;;;;;;5053391;28;20924;-81
2022/04/18 05:50:14;;;;;;;3.47;2.53;;;;;;;;;;5053358;28;20423;-84
2022/04/18 05:52:40;;;;;;;2.73;2.63;;;;;;;;;;5053236;28;20385;-83
2022/04/18 05:55:06;;;;;;;2.40;2.30;;;;;;;;;;5053176;28;20557;-85
2022/04/18 05:57:32;;;;;;;2.33;2.23;;;;;;;;;;5056129;28;20370;-84
2022/04/18 05:59:58;;;;;;;2.80;2.60;;;;;;;;;;5057035;28;20410;-78
2022/04/18 06:02:24;;;;;;;2.20;2.10;;;;;;;;;;5052530;28;20414;-82
2022/04/18 06:04:50;;;;;;;3.40;2.70;;;;;;;;;;5053239;28;20745;-83
2022/04/18 06:07:16;;;;;;;3.43;3.23;;;;;;;;;;5051867;28;20419;-83
2022/04/18 06:09:42;;;;;;;2.10;2.10;;;;;;;;;;5053156;28;20454;-83
2022/04/18 06:12:08;;;;;;;3.27;3.17;;;;;;;;;;5053265;28;20407;-81
2022/04/18 06:14:34;;;;;;;2.37;2.30;;;;;;;;;;5053076;28;20477;-84
2022/04/18 06:17:00;;;;;;;2.63;2.53;;;;;;;;;;5053907;28;20370;-75
2022/04/18 06:19:26;;;;;;;2.67;2.57;;;;;;;;;;5057628;28;20415;-80
2022/04/18 06:21:52;;;;;;;3.87;3.20;;;;;;;;;;5057501;28;20403;-82
2022/04/18 06:24:18;;;;;;;2.80;2.70;;;;;;;;;;5056923;28;20741;-84
2022/04/18 06:26:45;;;;;;;3.20;2.90;;;;;;;;;;5057071;28;20861;-81
2022/04/18 06:29:11;;;;;;;3.27;3.17;;;;;;;;;;5057432;28;20468;-82
2022/04/18 06:31:37;;;;;;;3.20;3.03;;;;;;;;;;5055627;28;20938;-82
2022/04/18 06:34:03;;;;;;;3.37;3.27;;;;;;;;;;5056557;28;20457;-79
2022/04/18 06:36:31;;;;;;;4.10;3.90;;;;;;;;;;5055534;28;20444;-80
2022/04/18 06:38:57;;;;;;;3.70;3.50;;;;;;;;;;5059637;28;20381;-75
2022/04/18 06:41:23;;;;;;;3.13;3.00;;;;;;;;;;5056491;28;20434;-84
2022/04/18 06:43:49;;;;;;;5.80;3.43;;;;;;;;;;5056784;28;20534;-77
2022/04/18 06:46:15;;;;;;;3.90;3.53;;;;;;;;;;5056559;28;20509;-81
2022/04/18 06:48:41;;;;;;;4.33;3.20;;;;;;;;;;5056477;28;20764;-83
2022/04/18 06:51:07;;;;;;;6.83;3.60;;;;;;;;;;5056539;28;20390;-80
2022/04/18 06:53:33;;;;;;;3.20;3.10;;;;;;;;;;5056297;28;20393;-81
2022/04/18 06:58:52;;;;;;;3.97;3.77;;;;;;;;;;5047791;28;20422;-76
2022/04/18 07:01:17;;;;;;;3.27;3.17;;;;;;;;;;5056402;28;20407;-77
2022/04/18 07:03:43;;;;;;;6.20;3.30;;;;;;;;;;5056201;28;20716;-80
2022/04/18 07:06:09;;;;;;;3.40;3.30;;;;;;;;;;5056021;28;20495;-83
2022/04/18 07:08:35;;;;;;;3.97;3.60;;;;;;;;;;5056172;28;20414;-79
2022/04/18 07:11:01;;;;;;;3.60;3.40;;;;;;;;;;5056003;28;20410;-73
2022/04/18 07:13:28;;;;;;;3.23;3.13;;;;;;;;;;5055854;28;20421;-77
2022/04/18 07:15:54;;;;;;;3.70;3.50;;;;;;;;;;5054413;28;20479;-78
2022/04/18 07:18:20;;;;;;;3.70;3.50;;;;;;;;;;5054793;28;20468;-76
2022/04/18 07:20:46;;;;;;;3.87;3.67;;;;;;;;;;5054428;28;20402;-79
2022/04/18 07:23:12;;;;;;;4.30;4.00;;;;;;;;;;5054325;28;20417;-71
2022/04/18 07:25:38;;;;;;;4.80;3.23;;;;;;;;;;5055724;28;20412;-83
2022/04/18 07:28:04;;;;;;;4.20;3.80;;;;;;;;;;5055431;28;20403;-82
2022/04/18 07:30:32;;;;;;;4.00;3.80;;;;;;;;;;5054441;28;20792;-78
2022/04/18 07:33:01;;;;;;;3.80;3.70;;;;;;;;;;5054158;28;20779;-81
2022/04/18 07:35:27;;;;;;;3.80;3.60;;;;;;;;;;5055301;28;20471;-78
2022/04/18 07:40:43;;;;;;;5.77;3.63;;;;;;;;;;5055474;28;21054;-80
2022/04/18 07:43:09;;;;;;;3.73;3.53;;;;;;;;;;5055294;28;20397;-80
2022/04/18 07:45:37;;;;;;;3.80;3.60;;;;;;;;;;5055465;28;20404;-78
2022/04/18 07:48:03;;;;;;;3.27;3.13;;;;;;;;;;5055235;28;20399;-79
2022/04/18 07:53:13;;;;;;;3.50;3.40;;;;;;;;;;5055165;28;20409;-77
2022/04/18 07:55:39;;;;;;;4.27;3.90;;;;;;;;;;5054946;28;20964;-75
2022/04/18 07:58:05;;;;;;;3.30;3.00;;;;;;;;;;5055231;28;20397;-73
2022/04/18 08:00:32;;;;;;;3.70;3.50;;;;;;;;;;5054891;28;20403;-75
2022/04/18 08:02:57;;;;;;;3.07;2.87;;;;;;;;;;5054805;28;20391;-73
2022/04/18 08:05:23;;;;;;;3.27;3.17;;;;;;;;;;5054741;28;20472;-74
2022/04/18 08:07:49;;;;;;;3.30;3.20;;;;;;;;;;5053212;28;20403;-72
2022/04/18 08:10:15;;;;;;;7.20;3.50;;;;;;;;;;5051586;28;21055;-74
2022/04/18 08:12:41;;;;;;;3.73;3.53;;;;;;;;;;5052218;28;20876;-75
2022/04/18 08:15:08;;;;;;;3.50;3.40;;;;;;;;;;5052563;28;20482;-75
2022/04/18 08:17:34;;;;;;;3.67;3.47;;;;;;;;;;5051929;28;20419;-74
2022/04/18 08:20:00;;;;;;;3.60;3.40;;;;;;;;;;5050821;28;20525;-77
2022/04/18 08:22:26;;;;;;;3.27;3.07;;;;;;;;;;5050691;28;20463;-73
2022/04/18 08:24:52;;;;;;;3.30;3.10;;;;;;;;;;5051860;28;20467;-76
2022/04/18 08:27:18;;;;;;;3.60;3.40;;;;;;;;;;5051922;28;20415;-73
2022/04/18 08:29:47;;;;;;;3.73;3.63;;;;;;;;;;5052010;28;20437;-71
2022/04/18 08:32:13;;;;;;;3.57;3.37;;;;;;;;;;5051896;28;20425;-73
2022/04/18 08:34:40;;;;;;;3.97;3.40;;;;;;;;;;5053495;28;20462;-73
2022/04/18 08:37:07;;;;;;;3.70;3.60;;;;;;;;;;5051426;28;20446;-72
2022/04/18 08:39:33;;;;;;;3.73;3.50;;;;;;;;;;5050874;28;20520;-73
2022/04/18 08:42:02;;;;;;;3.83;3.53;;;;;;;;;;5051550;28;20434;-74
2022/04/18 08:44:30;;;;;;;3.30;3.17;;;;;;;;;;5051366;28;20415;-74
2022/04/18 08:46:59;;;;;;;3.50;3.30;;;;;;;;;;5052934;28;20415;-75
2022/04/18 08:52:43;;;;;;;4.57;3.70;;;;;;;;;;5054008;28;20867;-74
2022/04/18 08:54:57;;;;;;;3.57;3.47;;;;;;;;;;5053670;28;20466;-74
2022/04/18 08:57:23;;;;;;;3.87;3.63;;;;;;;;;;5053881;28;20422;-74
2022/04/18 08:59:49;;;;;;;3.80;3.70;;;;;;;;;;5053852;28;20395;-75
2022/04/18 09:02:15;;;;;;;3.93;3.73;;;;;;;;;;5053838;28;20407;-75
2022/04/18 09:04:41;;;;;;;3.77;3.57;;;;;;;;;;5052490;28;20419;-75
2022/04/18 09:07:09;;;;;;;3.20;3.10;;;;;;;;;;5053769;28;20403;-75
2022/04/18 09:09:36;;;;;;;3.90;3.70;;;;;;;;;;5053628;28;20470;-75
2022/04/18 09:12:02;;;;;;;3.40;3.20;;;;;;;;;;5053783;28;20399;-85
2022/04/18 09:14:28;;;;;;;3.57;3.30;;;;;;;;;;5053456;28;20532;-71
2022/04/18 09:16:54;;;;;;;2.80;2.80;;;;;;;;;;5053603;28;20735;-72
2022/04/18 09:19:20;;;;;;;3.37;3.27;;;;;;;;;;5053408;28;20480;-72
2022/04/18 09:21:58;;;;;;;4.23;4.03;;;;;;;;;;5053618;28;20458;-71
2022/04/18 09:24:27;;;;;;;3.30;3.20;;;;;;;;;;5052167;28;20421;-71
2022/04/18 09:26:53;;;;;;;3.17;3.07;;;;;;;;;;5053478;28;20403;-72
2022/04/18 09:29:19;;;;;;;3.37;3.10;;;;;;;;;;5053207;28;20457;-72
2022/04/18 09:31:45;;;;;;;3.40;2.70;;;;;;;;;;5052023;28;20422;-71
2022/04/18 09:34:18;;;;;;;3.50;3.23;;;;;;;;;;5053029;28;20454;-72
2022/04/18 09:36:44;;;;;;;3.20;3.10;;;;;;;;;;5053051;28;20882;-71
2022/04/18 09:39:10;;;;;;;3.10;3.00;;;;;;;;;;5052719;28;20430;-71
2022/04/18 09:41:36;;;;;;;2.50;2.40;;;;;;;;;;5052950;28;20761;-76
2022/04/18 09:44:02;;;;;;;2.43;2.23;;;;;;;;;;5052967;28;20421;-70
2022/04/18 09:46:28;;;;;;;2.80;2.70;;;;;;;;;;5051830;28;20525;-72
2022/04/18 09:49:00;;;;;;;2.70;2.70;;;;;;;;;;5052996;28;20891;-72
2022/04/18 09:51:29;;;;;;;2.73;2.70;;;;;;;;;;5053350;28;20489;-72
2022/04/18 09:53:57;;;;;;;2.57;2.47;;;;;;;;;;5057278;28;20857;-74
2022/04/18 09:56:23;;;;;;;2.27;2.27;;;;;;;;;;5057475;28;20520;-75
2022/04/18 09:58:50;;;;;;;2.60;2.50;;;;;;;;;;5055678;28;20512;-74
2022/04/18 10:01:16;;;;;;;2.53;2.43;;;;;;;;;;5057065;28;20913;-74
2022/04/18 10:03:43;;;;;;;2.30;2.13;;;;;;;;;;5056822;28;20941;-71
2022/04/18 10:06:10;;;;;;;2.30;2.20;;;;;;;;;;5056834;28;20900;-73
2022/04/18 10:08:36;;;;;;;2.20;2.10;;;;;;;;;;5055689;28;20965;-72
2022/04/18 10:11:03;;;;;;;2.00;2.00;;;;;;;;;;5057123;28;20782;-75
2022/04/18 10:13:30;;;;;;;2.30;2.30;;;;;;;;;;5057146;28;20739;-73
2022/04/18 10:15:58;;;;;;;2.57;2.47;;;;;;;;;;5056884;28;20517;-74
2022/04/18 10:18:24;;;;;;;3.77;2.23;;;;;;;;;;5056910;28;20401;-74
2022/04/18 10:20:53;;;;;;;1.83;1.83;;;;;;;;;;5056786;28;20425;-72
2022/04/18 10:23:25;;;;;;;1.97;1.87;;;;;;;;;;5055383;28;20428;-73
2022/04/18 10:26:20;;;;;;;4.17;1.80;;;;;;;;;;5056695;28;20418;-72
2022/04/18 10:28:49;;;;;;;2.00;2.00;;;;;;;;;;5056604;28;20517;-71
2022/04/18 10:31:18;;;;;;;1.77;1.77;;;;;;;;;;5056518;28;20398;-71
2022/04/18 10:33:44;;;;;;;1.90;1.90;;;;;;;;;;5055228;28;20422;-72
2022/04/18 10:36:12;;;;;;;2.20;2.10;;;;;;;;;;5056234;28;20484;-71
2022/04/18 10:38:41;;;;;;;1.50;1.50;;;;;;;;;;5053136;28;20427;-69
2022/04/18 10:41:27;;;;;;;1.50;1.50;;;;;;;;;;5054756;28;20474;-71
2022/04/18 10:43:58;;;;;;;2.00;1.80;;;;;;;;;;5055373;28;20429;-69
2022/04/18 10:46:24;;;;;;;1.80;1.80;;;;;;;;;;5055539;28;20411;-71
2022/04/18 10:49:00;;;;;;;2.57;2.37;;;;;;;;;;5055033;28;20422;-70
2022/04/18 10:51:27;;;;;;;1.90;1.90;;;;;;;;;;5055505;28;20410;-70
2022/04/18 10:54:04;;;;;;;2.50;2.27;;;;;;;;;;5055627;28;20403;-70
2022/04/18 10:56:45;;;;;;;2.33;2.23;;;;;;;;;;5055591;28;20518;-71
2022/04/18 10:59:12;;;;;;;1.97;1.90;;;;;;;;;;5055543;28;20834;-72
2022/04/18 11:01:38;;;;;;;2.30;2.20;;;;;;;;;;5055925;28;20404;-70
2022/04/18 11:04:08;;;;;;;2.87;2.33;;;;;;;;;;5055124;28;20493;-70
2022/04/18 11:06:36;;;;;;;2.50;2.13;;;;;;;;;;5055349;28;20474;-70
2022/04/18 11:09:08;;;;;;;2.10;2.00;;;;;;;;;;5056012;28;20412;-77
2022/04/18 11:11:34;;;;;;;2.60;2.27;;;;;;;;;;5055797;28;20408;-72
2022/04/18 11:14:01;;;;;;;1.83;1.83;;;;;;;;;;5055289;28;20822;-72
2022/04/18 11:16:27;;;;;;;2.40;1.67;;;;;;;;;;5055646;28;20407;-70
2022/04/18 11:19:06;;;;;;;1.97;1.97;;;;;;;;;;5055376;28;20734;-70
2022/04/18 11:21:51;;;;;;;1.80;1.80;;;;;;;;;;5054868;28;20417;-71
2022/04/18 11:24:35;;;;;;;1.90;1.83;;;;;;;;;;5054458;28;20823;-69
2022/04/18 11:27:02;;;;;;;1.90;1.90;;;;;;;;;;5054537;28;20418;-69
2022/04/18 11:29:31;;;;;;;1.90;1.90;;;;;;;;;;5054423;28;20953;-68
2022/04/18 11:31:57;;;;;;;1.83;1.83;;;;;;;;;;5054519;28;20410;-68
2022/04/18 11:34:25;;;;;;;1.73;1.73;;;;;;;;;;5054607;28;20596;-72
2022/04/18 11:36:53;;;;;;;1.97;1.97;;;;;;;;;;5055012;28;20469;-69
2022/04/18 11:39:19;;;;;;;1.70;1.70;;;;;;;;;;5054663;28;20465;-70
2022/04/18 11:41:45;;;;;;;2.10;1.90;;;;;;;;;;5054240;28;20603;-69
2022/04/18 11:44:11;;;;;;;3.50;1.80;;;;;;;;;;5054487;28;20407;-70
2022/04/18 11:46:37;;;;;;;1.80;1.80;;;;;;;;;;5054634;28;20471;-67
2022/04/18 11:49:03;;;;;;;1.50;1.50;;;;;;;;;;5054287;28;20549;-69
2022/04/18 11:51:41;;;;;;;7.33;2.20;;;;;;;;;;5054588;28;20516;-71
2022/04/18 11:54:07;;;;;;;1.80;1.70;;;;;;;;;;5054777;28;20878;-69
2022/04/18 11:56:34;;;;;;;1.80;1.50;;;;;;;;;;5054944;28;20502;-69
2022/04/18 11:59:06;;;;;;;2.30;2.30;;;;;;;;;;5054801;28;20433;-71
2022/04/18 12:07:01;;;;;;;2.43;2.33;;;;;;;;;;5054984;28;20449;-69
2022/04/18 12:09:27;;;;;;;5.60;2.27;;;;;;;;;;5054612;28;20469;-69
2022/04/18 12:11:54;;;;;;;2.70;2.50;;;;;;;;;;5054680;28;20421;-71
2022/04/18 12:14:20;;;;;;;1.93;1.80;;;;;;;;;;5053671;28;20477;-69
2022/04/18 12:16:46;;;;;;;2.20;2.20;;;;;;;;;;5054360;28;20398;-70
2022/04/18 12:19:15;;;;;;;4.30;2.50;;;;;;;;;;5054343;28;20446;-70
2022/04/18 12:21:41;;;;;;;2.13;2.03;;;;;;;;;;5054433;28;20408;-68
2022/04/18 12:24:08;;;;;;;2.10;2.10;;;;;;;;;;5054387;28;20424;-69
2022/04/18 12:26:34;;;;;;;2.23;2.13;;;;;;;;;;5054311;28;20930;-69
2022/04/18 12:29:08;;;;;;;2.20;1.80;;;;;;;;;;5054345;28;20406;-69
2022/04/18 12:31:38;;;;;;;2.30;2.20;;;;;;;;;;5054065;28;20392;-70
2022/04/18 12:34:03;;;;;;;1.60;1.60;;;;;;;;;;5054012;28;20407;-69
2022/04/18 12:36:32;;;;;;;1.67;1.67;;;;;;;;;;5054173;28;20423;-69
2022/04/18 12:38:58;;;;;;;2.60;2.43;;;;;;;;;;5053854;28;20886;-70
2022/04/18 12:41:34;;;;;;;1.60;1.60;;;;;;;;;;5054039;28;20510;-70
2022/04/18 12:44:01;;;;;;;2.33;1.90;;;;;;;;;;5052715;28;20427;-70
2022/04/18 12:46:31;;;;;;;2.00;1.90;;;;;;;;;;5053926;28;20879;-71
2022/04/18 12:48:57;;;;;;;2.30;2.10;;;;;;;;;;5053887;28;20420;-71
2022/04/18 12:51:43;;;;;;;2.10;2.10;;;;;;;;;;5053843;28;20413;-71
2022/04/18 12:54:19;;;;;;;2.00;2.00;;;;;;;;;;5053457;28;20425;-70
2022/04/18 12:56:46;;;;;;;1.70;1.70;;;;;;;;;;5052486;28;20427;-71
2022/04/18 12:59:14;;;;;;;3.33;2.20;;;;;;;;;;5053712;28;20498;-71
2022/04/18 13:01:40;;;;;;;1.90;1.90;;;;;;;;;;5053733;28;20470;-71
2022/04/18 13:04:27;;;;;;;2.20;2.10;;;;;;;;;;5053887;28;20395;-70
2022/04/18 13:06:58;;;;;;;1.97;1.97;;;;;;;;;;5053561;28;20927;-71
2022/04/18 13:09:24;;;;;;;2.40;2.20;;;;;;;;;;5053556;28;20926;-71
2022/04/18 13:11:59;;;;;;;2.33;2.23;;;;;;;;;;5053657;28;20432;-71
2022/04/18 13:14:25;;;;;;;2.07;1.97;;;;;;;;;;5053593;28;20478;-71
2022/04/18 13:17:04;;;;;;;1.87;1.87;;;;;;;;;;5053667;28;20919;-72
2022/04/18 13:19:30;;;;;;;2.00;1.90;;;;;;;;;;5053477;28;20800;-72
2022/04/18 13:21:56;;;;;;;2.30;2.30;;;;;;;;;;5053569;28;20407;-72
2022/04/18 13:24:22;;;;;;;1.47;1.47;;;;;;;;;;5053629;28;20458;-71
2022/04/18 13:26:48;;;;;;;2.17;2.07;;;;;;;;;;5051961;28;20955;-71
2022/04/18 13:29:14;;;;;;;8.00;2.30;;;;;;;;;;5053313;28;20912;-70
2022/04/18 13:31:41;;;;;;;2.40;2.20;;;;;;;;;;5053344;28;20407;-73
2022/04/18 13:34:07;;;;;;;2.50;1.97;;;;;;;;;;5053086;28;20396;-71
2022/04/18 13:36:37;;;;;;;2.30;2.20;;;;;;;;;;5053412;28;20414;-72
2022/04/18 13:39:04;;;;;;;2.30;2.20;;;;;;;;;;5053307;28;20428;-71
2022/04/18 13:41:30;;;;;;;2.30;2.20;;;;;;;;;;5053178;28;20420;-72
2022/04/18 13:43:57;;;;;;;1.93;1.83;;;;;;;;;;5053104;28;20412;-71
2022/04/18 13:46:23;;;;;;;1.77;1.77;;;;;;;;;;5053092;28;20411;-73
2022/04/18 13:48:50;;;;;;;1.80;1.80;;;;;;;;;;5053119;28;20422;-71
2022/04/18 13:51:16;;;;;;;3.47;3.37;;;;;;;;;;5053281;28;20510;-71
2022/04/18 13:53:42;;;;;;;2.20;2.10;;;;;;;;;;5052979;28;20412;-73
2022/04/18 13:56:08;;;;;;;2.37;2.30;;;;;;;;;;5052834;28;20512;-71
2022/04/18 13:58:34;;;;;;;2.20;2.10;;;;;;;;;;5052994;28;20434;-70
2022/04/18 14:01:00;;;;;;;2.30;2.10;;;;;;;;;;5053231;28;20438;-71
2022/04/18 14:03:26;;;;;;;1.73;1.73;;;;;;;;;;5052987;28;20395;-68
2022/04/18 14:05:53;;;;;;;2.03;2.03;;;;;;;;;;5052925;28;20464;-72
2022/04/18 14:08:19;;;;;;;2.63;1.77;;;;;;;;;;5053001;28;20456;-69
2022/04/18 14:10:45;;;;;;;2.70;2.60;;;;;;;;;;5053052;28;20416;-71
2022/04/18 14:13:11;;;;;;;1.80;1.80;;;;;;;;;;5052898;28;20409;-72
2022/04/18 14:21:07;;;;;;;1.93;1.83;;;;;;;;;;5052749;28;20431;-71
2022/04/18 14:23:33;;;;;;;2.10;2.00;;;;;;;;;;5051571;28;20421;-72
2022/04/18 14:25:59;;;;;;;1.27;1.27;;;;;;;;;;5052889;28;20451;-72
2022/04/18 14:28:25;;;;;;;2.77;2.00;;;;;;;;;;5052864;28;20416;-72
2022/04/18 14:30:51;;;;;;;2.07;1.97;;;;;;;;;;5052848;28;20843;-69
2022/04/18 14:33:17;;;;;;;1.83;1.73;;;;;;;;;;5051512;28;20466;-70
2022/04/18 14:35:43;;;;;;;1.73;1.73;;;;;;;;;;5052624;28;20478;-71
2022/04/18 14:38:10;;;;;;;2.20;2.10;;;;;;;;;;5053798;28;20465;-72
2022/04/18 14:40:39;;;;;;;3.27;1.60;;;;;;;;;;5056235;28;21123;-72
2022/04/18 14:43:05;;;;;;;1.70;1.70;;;;;;;;;;5056441;28;20404;-71
2022/04/18 14:45:31;;;;;;;2.40;1.90;;;;;;;;;;5056318;28;20421;-71
2022/04/18 14:47:57;;;;;;;2.13;2.03;;;;;;;;;;5056024;28;20438;-71
2022/04/18 14:50:23;;;;;;;2.63;1.93;;;;;;;;;;5056059;28;20831;-72
2022/04/18 14:52:49;;;;;;;1.80;1.80;;;;;;;;;;5056268;28;20412;-70
2022/04/18 14:55:15;;;;;;;5.43;1.70;;;;;;;;;;5056095;28;20519;-70
2022/04/18 14:57:41;;;;;;;1.90;1.90;;;;;;;;;;5056066;28;20404;-70
2022/04/18 15:00:08;;;;;;;1.73;1.63;;;;;;;;;;5056082;28;20498;-70
2022/04/18 15:02:34;;;;;;;1.97;1.97;;;;;;;;;;5056049;28;21000;-71
2022/04/18 15:05:06;;;;;;;1.90;1.80;;;;;;;;;;5054640;28;21047;-71
2022/04/18 15:07:32;;;;;;;2.27;1.63;;;;;;;;;;5055934;28;20483;-72
2022/04/18 15:09:58;;;;;;;1.97;1.87;;;;;;;;;;5055819;28;20454;-72
2022/04/18 15:12:27;;;;;;;2.00;2.00;;;;;;;;;;5054485;28;20560;-73
2022/04/18 15:14:53;;;;;;;3.17;1.97;;;;;;;;;;5055673;28;20805;-72
2022/04/18 15:17:19;;;;;;;2.90;1.83;;;;;;;;;;5055760;28;20421;-72